sensor_id;sensor_type;location;lat;lon;timestamp;pressure;altitude;pressure_sealevel;temperature;humidity
59419;BME280;45224;50.904;6.038;2023-08-12T00:00:55;100052.69;;;23.56;99.13
59419;BME280;45224;50.904;6.038;2023-08-12T00:02:25;100056.53;;;23.67;97.84
59419;BME280;45224;50.904;6.038;2023-08-12T00:03:56;100048.78;;;23.64;98.55
59419;BME280;45224;50.904;6.038;2023-08-12T00:05:26;100049.69;;;23.63;98.37
59419;BME280;45224;50.904;6.038;2023-08-12T00:06:56;100055.03;;;23.62;98.66
59419;BME280;45224;50.904;6.038;2023-08-12T00:08:27;100051.63;;;23.60;98.67
59419;BME280;45224;50.904;6.038;2023-08-12T00:10:00;100045.56;;;23.58;99.36
59419;BME280;45224;50.904;6.038;2023-08-12T00:11:31;100044.63;;;23.59;99.08
59419;BME280;45224;50.904;6.038;2023-08-12T00:13:01;100042.38;;;23.51;99.59
59419;BME280;45224;50.904;6.038;2023-08-12T00:14:32;100040.53;;;23.53;99.91
59419;BME280;45224;50.904;6.038;2023-08-12T00:16:03;100032.84;;;23.48;99.63
59419;BME280;45224;50.904;6.038;2023-08-12T00:17:34;100035.25;;;23.53;99.68
59419;BME280;45224;50.904;6.038;2023-08-12T00:19:06;100045.00;;;23.51;99.95
59419;BME280;45224;50.904;6.038;2023-08-12T00:20:38;100046.81;;;23.50;99.64
59419;BME280;45224;50.904;6.038;2023-08-12T00:22:08;100038.13;;;23.48;99.99
59419;BME280;45224;50.904;6.038;2023-08-12T00:23:40;100029.50;;;23.45;100.00
59419;BME280;45224;50.904;6.038;2023-08-12T00:25:11;100034.69;;;23.46;100.00
59419;BME280;45224;50.904;6.038;2023-08-12T00:26:41;100033.16;;;23.42;99.99
59419;BME280;45224;50.904;6.038;2023-08-12T00:28:12;100026.22;;;23.40;100.00
59419;BME280;45224;50.904;6.038;2023-08-12T00:29:43;100039.19;;;23.44;100.00
59419;BME280;45224;50.904;6.038;2023-08-12T00:31:13;100026.00;;;23.44;100.00
59419;BME280;45224;50.904;6.038;2023-08-12T00:32:44;100028.00;;;23.39;100.00
59419;BME280;45224;50.904;6.038;2023-08-12T00:34:14;100031.41;;;23.41;100.00
59419;BME280;45224;50.904;6.038;2023-08-12T00:35:45;100037.50;;;23.43;100.00
59419;BME280;45224;50.904;6.038;2023-08-12T00:37:15;100031.41;;;23.41;100.00
59419;BME280;45224;50.904;6.038;2023-08-12T00:38:46;100027.16;;;23.39;100.00
59419;BME280;45224;50.904;6.038;2023-08-12T00:40:16;100036.00;;;23.38;100.00
59419;BME280;45224;50.904;6.038;2023-08-12T00:41:47;100022.88;;;23.36;100.00
59419;BME280;45224;50.904;6.038;2023-08-12T00:43:17;100028.16;;;23.36;100.00
59419;BME280;45224;50.904;6.038;2023-08-12T00:44:48;100019.47;;;23.34;100.00
59419;BME280;45224;50.904;6.038;2023-08-12T00:46:18;100022.75;;;23.39;100.00
59419;BME280;45224;50.904;6.038;2023-08-12T00:47:49;100018.38;;;23.38;100.00
59419;BME280;45224;50.904;6.038;2023-08-12T00:49:19;100014.81;;;23.39;100.00
59419;BME280;45224;50.904;6.038;2023-08-12T00:50:50;100009.63;;;23.38;100.00
59419;BME280;45224;50.904;6.038;2023-08-12T00:52:20;100015.75;;;23.38;100.00
59419;BME280;45224;50.904;6.038;2023-08-12T00:53:51;100013.91;;;23.40;100.00
59419;BME280;45224;50.904;6.038;2023-08-12T00:55:23;100010.63;;;23.35;100.00
59419;BME280;45224;50.904;6.038;2023-08-12T00:56:53;100002.00;;;23.31;100.00
59419;BME280;45224;50.904;6.038;2023-08-12T00:58:24;100003.50;;;23.37;100.00
59419;BME280;45224;50.904;6.038;2023-08-12T00:59:55;100001.94;;;23.33;100.00
59419;BME280;45224;50.904;6.038;2023-08-12T01:01:26;99996.81;;;23.30;100.00
59419;BME280;45224;50.904;6.038;2023-08-12T01:03:00;100010.06;;;23.28;100.00
59419;BME280;45224;50.904;6.038;2023-08-12T01:04:31;100018.84;;;23.29;100.00
59419;BME280;45224;50.904;6.038;2023-08-12T01:06:02;100009.22;;;23.28;100.00
59419;BME280;45224;50.904;6.038;2023-08-12T01:07:33;100000.53;;;23.26;100.00
59419;BME280;45224;50.904;6.038;2023-08-12T01:09:04;99993.69;;;23.22;100.00
59419;BME280;45224;50.904;6.038;2023-08-12T01:10:36;99998.81;;;23.25;100.00
59419;BME280;45224;50.904;6.038;2023-08-12T01:13:47;99991.81;;;23.24;100.00
59419;BME280;45224;50.904;6.038;2023-08-12T01:15:24;99990.13;;;23.23;100.00
59419;BME280;45224;50.904;6.038;2023-08-12T01:17:00;99995.13;;;23.29;100.00
59419;BME280;45224;50.904;6.038;2023-08-12T01:18:34;99992.63;;;23.26;100.00
59419;BME280;45224;50.904;6.038;2023-08-12T01:20:06;99972.53;;;23.23;100.00
59419;BME280;45224;50.904;6.038;2023-08-12T01:21:44;99988.28;;;23.25;100.00
59419;BME280;45224;50.904;6.038;2023-08-12T01:23:15;99982.38;;;23.20;100.00
59419;BME280;45224;50.904;6.038;2023-08-12T01:24:46;99981.59;;;23.18;100.00
59419;BME280;45224;50.904;6.038;2023-08-12T01:26:16;99977.41;;;23.13;100.00
59419;BME280;45224;50.904;6.038;2023-08-12T01:27:47;99977.53;;;23.10;100.00
59419;BME280;45224;50.904;6.038;2023-08-12T01:29:18;99984.53;;;23.11;100.00
59419;BME280;45224;50.904;6.038;2023-08-12T01:30:56;99980.19;;;23.10;100.00
59419;BME280;45224;50.904;6.038;2023-08-12T01:32:39;99980.34;;;23.07;100.00
59419;BME280;45224;50.904;6.038;2023-08-12T01:34:17;99980.44;;;23.04;100.00
59419;BME280;45224;50.904;6.038;2023-08-12T01:35:58;99982.06;;;23.08;100.00
59419;BME280;45224;50.904;6.038;2023-08-12T01:37:32;99973.34;;;23.06;100.00
59419;BME280;45224;50.904;6.038;2023-08-12T01:39:04;99977.75;;;23.06;100.00
59419;BME280;45224;50.904;6.038;2023-08-12T01:40:38;99976.88;;;23.05;100.00
59419;BME280;45224;50.904;6.038;2023-08-12T01:42:09;99975.16;;;23.04;100.00
59419;BME280;45224;50.904;6.038;2023-08-12T01:43:41;99980.34;;;23.07;100.00
59419;BME280;45224;50.904;6.038;2023-08-12T01:45:12;99976.81;;;23.07;100.00
59419;BME280;45224;50.904;6.038;2023-08-12T01:46:45;99964.44;;;23.09;100.00
59419;BME280;45224;50.904;6.038;2023-08-12T01:48:16;99964.38;;;23.10;100.00
59419;BME280;45224;50.904;6.038;2023-08-12T01:49:46;99964.38;;;23.10;100.00
59419;BME280;45224;50.904;6.038;2023-08-12T01:51:17;99971.34;;;23.11;100.00
59419;BME280;45224;50.904;6.038;2023-08-12T01:52:47;99975.06;;;23.07;100.00
59419;BME280;45224;50.904;6.038;2023-08-12T01:54:18;99973.41;;;23.05;100.00
59419;BME280;45224;50.904;6.038;2023-08-12T01:55:49;99969.91;;;23.04;100.00
59419;BME280;45224;50.904;6.038;2023-08-12T01:57:20;99972.59;;;23.03;100.00
59419;BME280;45224;50.904;6.038;2023-08-12T01:58:50;99973.47;;;23.03;100.00
59419;BME280;45224;50.904;6.038;2023-08-12T02:00:21;99969.91;;;23.04;100.00
59419;BME280;45224;50.904;6.038;2023-08-12T02:01:51;99960.31;;;23.03;100.00
59419;BME280;45224;50.904;6.038;2023-08-12T02:03:22;99954.34;;;23.00;100.00
59419;BME280;45224;50.904;6.038;2023-08-12T02:04:52;99958.72;;;22.99;100.00
59419;BME280;45224;50.904;6.038;2023-08-12T02:06:23;99966.78;;;22.96;100.00
59419;BME280;45224;50.904;6.038;2023-08-12T02:07:53;99968.50;;;22.97;100.00
59419;BME280;45224;50.904;6.038;2023-08-12T02:09:23;99966.78;;;22.96;100.00
59419;BME280;45224;50.904;6.038;2023-08-12T02:10:54;99966.94;;;22.93;100.00
59419;BME280;45224;50.904;6.038;2023-08-12T02:12:26;99958.25;;;22.91;100.00
59419;BME280;45224;50.904;6.038;2023-08-12T02:13:56;99957.19;;;22.95;100.00
59419;BME280;45224;50.904;6.038;2023-08-12T02:15:27;99951.25;;;22.90;100.00
59419;BME280;45224;50.904;6.038;2023-08-12T02:16:57;99952.00;;;22.93;100.00
59419;BME280;45224;50.904;6.038;2023-08-12T02:18:29;99945.06;;;22.91;100.00
59419;BME280;45224;50.904;6.038;2023-08-12T02:19:59;99934.81;;;22.85;100.00
59419;BME280;45224;50.904;6.038;2023-08-12T02:21:29;99945.22;;;22.88;100.00
59419;BME280;45224;50.904;6.038;2023-08-12T02:23:00;99939.19;;;22.86;100.00
59419;BME280;45224;50.904;6.038;2023-08-12T02:24:30;99938.47;;;22.82;100.00
59419;BME280;45224;50.904;6.038;2023-08-12T02:26:02;99941.81;;;22.86;100.00
59419;BME280;45224;50.904;6.038;2023-08-12T02:27:33;99941.03;;;22.84;100.00
59419;BME280;45224;50.904;6.038;2023-08-12T02:29:04;99931.41;;;22.83;100.00
59419;BME280;45224;50.904;6.038;2023-08-12T02:30:34;99937.59;;;22.82;100.00
59419;BME280;45224;50.904;6.038;2023-08-12T02:32:05;99922.13;;;22.75;100.00
59419;BME280;45224;50.904;6.038;2023-08-12T02:33:35;99929.00;;;22.78;100.00
59419;BME280;45224;50.904;6.038;2023-08-12T02:35:06;99921.16;;;22.76;100.00
59419;BME280;45224;50.904;6.038;2023-08-12T02:36:37;99929.06;;;22.76;100.00
59419;BME280;45224;50.904;6.038;2023-08-12T02:38:07;99926.50;;;22.75;100.00
59419;BME280;45224;50.904;6.038;2023-08-12T02:39:37;99932.81;;;22.72;100.00
59419;BME280;45224;50.904;6.038;2023-08-12T02:41:08;99933.66;;;22.73;100.00
59419;BME280;45224;50.904;6.038;2023-08-12T02:42:39;99928.44;;;22.71;100.00
59419;BME280;45224;50.904;6.038;2023-08-12T02:44:09;99926.78;;;22.69;100.00
59419;BME280;45224;50.904;6.038;2023-08-12T02:45:39;99928.59;;;22.68;100.00
59419;BME280;45224;50.904;6.038;2023-08-12T02:47:10;99924.22;;;22.67;100.00
59419;BME280;45224;50.904;6.038;2023-08-12T02:48:41;99915.84;;;22.59;100.00
59419;BME280;45224;50.904;6.038;2023-08-12T02:50:12;99910.44;;;22.62;100.00
59419;BME280;45224;50.904;6.038;2023-08-12T02:51:42;99906.03;;;22.63;100.00
59419;BME280;45224;50.904;6.038;2023-08-12T02:53:13;99915.56;;;22.65;100.00
59419;BME280;45224;50.904;6.038;2023-08-12T02:54:43;99894.63;;;22.62;100.00
59419;BME280;45224;50.904;6.038;2023-08-12T02:56:14;99906.75;;;22.66;100.00
59419;BME280;45224;50.904;6.038;2023-08-12T02:57:44;99897.25;;;22.62;100.00
59419;BME280;45224;50.904;6.038;2023-08-12T02:59:15;99892.78;;;22.64;100.00
59419;BME280;45224;50.904;6.038;2023-08-12T03:00:45;99895.66;;;22.59;100.00
59419;BME280;45224;50.904;6.038;2023-08-12T03:02:16;99896.50;;;22.60;100.00
59419;BME280;45224;50.904;6.038;2023-08-12T03:03:46;99891.38;;;22.57;100.00
59419;BME280;45224;50.904;6.038;2023-08-12T03:05:17;99894.78;;;22.59;100.00
59419;BME280;45224;50.904;6.038;2023-08-12T03:06:47;99886.03;;;22.58;100.00
59419;BME280;45224;50.904;6.038;2023-08-12T03:08:18;99874.78;;;22.55;100.00
59419;BME280;45224;50.904;6.038;2023-08-12T03:09:51;99871.06;;;22.59;100.00
59419;BME280;45224;50.904;6.038;2023-08-12T03:11:21;99876.25;;;22.60;100.00
59419;BME280;45224;50.904;6.038;2023-08-12T03:12:51;99867.44;;;22.61;100.00
59419;BME280;45224;50.904;6.038;2023-08-12T03:14:24;99864.25;;;22.55;100.00
59419;BME280;45224;50.904;6.038;2023-08-12T03:15:54;99860.13;;;22.49;100.00
59419;BME280;45224;50.904;6.038;2023-08-12T03:17:25;99867.72;;;22.55;100.00
59419;BME280;45224;50.904;6.038;2023-08-12T03:18:56;99866.25;;;22.50;100.00
59419;BME280;45224;50.904;6.038;2023-08-12T03:20:28;99867.16;;;22.49;100.00
59419;BME280;45224;50.904;6.038;2023-08-12T03:21:58;99862.97;;;22.45;100.00
59419;BME280;45224;50.904;6.038;2023-08-12T03:23:29;99870.88;;;22.45;100.00
59419;BME280;45224;50.904;6.038;2023-08-12T03:25:01;99867.47;;;22.42;100.00
59419;BME280;45224;50.904;6.038;2023-08-12T03:26:31;99861.41;;;22.40;100.00
59419;BME280;45224;50.904;6.038;2023-08-12T03:28:03;99872.94;;;22.38;100.00
59419;BME280;45224;50.904;6.038;2023-08-12T03:29:33;99876.59;;;22.35;100.00
59419;BME280;45224;50.904;6.038;2023-08-12T03:31:04;99875.88;;;22.32;100.00
59419;BME280;45224;50.904;6.038;2023-08-12T03:32:36;99878.72;;;22.27;100.00
59419;BME280;45224;50.904;6.038;2023-08-12T03:34:07;99876.88;;;22.29;100.00
59419;BME280;45224;50.904;6.038;2023-08-12T03:35:38;99881.34;;;22.27;100.00
59419;BME280;45224;50.904;6.038;2023-08-12T03:37:08;99872.28;;;22.14;100.00
59419;BME280;45224;50.904;6.038;2023-08-12T03:38:39;99873.78;;;22.19;100.00
59419;BME280;45224;50.904;6.038;2023-08-12T03:40:12;99881.69;;;22.19;100.00
59419;BME280;45224;50.904;6.038;2023-08-12T03:41:44;99870.31;;;22.19;100.00
59419;BME280;45224;50.904;6.038;2023-08-12T03:43:14;99867.69;;;22.19;100.00
59419;BME280;45224;50.904;6.038;2023-08-12T03:44:46;99872.00;;;22.20;100.00
59419;BME280;45224;50.904;6.038;2023-08-12T03:46:17;99871.88;;;22.23;100.00
59419;BME280;45224;50.904;6.038;2023-08-12T03:47:47;99864.19;;;22.18;100.00
59419;BME280;45224;50.904;6.038;2023-08-12T03:49:18;99863.19;;;22.21;100.00
59419;BME280;45224;50.904;6.038;2023-08-12T03:50:49;99860.78;;;22.16;100.00
59419;BME280;45224;50.904;6.038;2023-08-12T03:52:19;99855.44;;;22.18;100.00
59419;BME280;45224;50.904;6.038;2023-08-12T03:53:50;99859.78;;;22.19;100.00
59419;BME280;45224;50.904;6.038;2023-08-12T03:55:20;99851.09;;;22.17;100.00
59419;BME280;45224;50.904;6.038;2023-08-12T03:56:51;99859.94;;;22.16;100.00
59419;BME280;45224;50.904;6.038;2023-08-12T03:58:22;99858.91;;;22.18;100.00
59419;BME280;45224;50.904;6.038;2023-08-12T03:59:53;99862.56;;;22.16;100.00
59419;BME280;45224;50.904;6.038;2023-08-12T04:01:24;99852.94;;;22.15;100.00
59419;BME280;45224;50.904;6.038;2023-08-12T04:02:54;99842.28;;;22.18;100.00
59419;BME280;45224;50.904;6.038;2023-08-12T04:04:25;99843.19;;;22.17;100.00
59419;BME280;45224;50.904;6.038;2023-08-12T04:05:55;99844.13;;;22.16;100.00
59419;BME280;45224;50.904;6.038;2023-08-12T04:07:27;99839.84;;;22.13;100.00
59419;BME280;45224;50.904;6.038;2023-08-12T04:08:57;99839.72;;;22.16;100.00
59419;BME280;45224;50.904;6.038;2023-08-12T04:10:28;99829.19;;;22.16;100.00
59419;BME280;45224;50.904;6.038;2023-08-12T04:12:00;99832.72;;;22.15;100.00
59419;BME280;45224;50.904;6.038;2023-08-12T04:13:30;99835.28;;;22.17;100.00
59419;BME280;45224;50.904;6.038;2023-08-12T04:15:01;99841.56;;;22.14;100.00
59419;BME280;45224;50.904;6.038;2023-08-12T04:16:34;99839.16;;;22.10;100.00
59419;BME280;45224;50.904;6.038;2023-08-12T04:18:05;99841.84;;;22.08;100.00
59419;BME280;45224;50.904;6.038;2023-08-12T04:19:35;99828.75;;;22.06;100.00
59419;BME280;45224;50.904;6.038;2023-08-12T04:21:07;99835.56;;;22.11;100.00
59419;BME280;45224;50.904;6.038;2023-08-12T04:22:38;99824.25;;;22.09;100.00
59419;BME280;45224;50.904;6.038;2023-08-12T04:24:08;99841.16;;;22.04;100.00
59419;BME280;45224;50.904;6.038;2023-08-12T04:25:39;99832.59;;;21.99;100.00
59419;BME280;45224;50.904;6.038;2023-08-12T04:27:10;99836.03;;;22.01;100.00
59419;BME280;45224;50.904;6.038;2023-08-12T04:28:40;99833.47;;;22.00;100.00
59419;BME280;45224;50.904;6.038;2023-08-12T04:30:11;99839.44;;;22.03;100.00
59419;BME280;45224;50.904;6.038;2023-08-12T04:31:42;99829.19;;;21.97;100.00
59419;BME280;45224;50.904;6.038;2023-08-12T04:33:13;99830.75;;;22.01;100.00
59419;BME280;45224;50.904;6.038;2023-08-12T04:34:45;99826.34;;;22.02;100.00
59419;BME280;45224;50.904;6.038;2023-08-12T04:36:17;99824.41;;;22.05;100.00
59419;BME280;45224;50.904;6.038;2023-08-12T04:37:47;99824.53;;;22.02;100.00
59419;BME280;45224;50.904;6.038;2023-08-12T04:39:17;99821.78;;;22.05;100.00
59419;BME280;45224;50.904;6.038;2023-08-12T04:40:48;99827.03;;;22.05;100.00
59419;BME280;45224;50.904;6.038;2023-08-12T04:42:18;99832.44;;;22.02;100.00
59419;BME280;45224;50.904;6.038;2023-08-12T04:43:49;99823.63;;;22.03;100.00
59419;BME280;45224;50.904;6.038;2023-08-12T04:45:20;99821.78;;;22.05;100.00
59419;BME280;45224;50.904;6.038;2023-08-12T04:46:52;99824.47;;;22.04;100.00
59419;BME280;45224;50.904;6.038;2023-08-12T04:48:24;99824.41;;;22.05;100.00
59419;BME280;45224;50.904;6.038;2023-08-12T04:49:54;99829.81;;;22.02;100.00
59419;BME280;45224;50.904;6.038;2023-08-12T04:51:25;99828.06;;;22.03;100.00
59419;BME280;45224;50.904;6.038;2023-08-12T04:52:56;99825.56;;;22.00;100.00
59419;BME280;45224;50.904;6.038;2023-08-12T04:54:26;99818.66;;;21.97;100.00
59419;BME280;45224;50.904;6.038;2023-08-12T04:55:58;99828.25;;;21.98;100.00
59419;BME280;45224;50.904;6.038;2023-08-12T04:57:28;99823.06;;;21.97;100.00
59419;BME280;45224;50.904;6.038;2023-08-12T04:58:59;99815.25;;;21.95;100.00
59419;BME280;45224;50.904;6.038;2023-08-12T05:00:30;99804.84;;;21.92;100.00
59419;BME280;45224;50.904;6.038;2023-08-12T05:02:01;99822.22;;;21.96;100.00
59419;BME280;45224;50.904;6.038;2023-08-12T05:03:31;99820.16;;;21.84;100.00
59419;BME280;45224;50.904;6.038;2023-08-12T05:05:02;99823.91;;;21.78;100.00
59419;BME280;45224;50.904;6.038;2023-08-12T05:06:34;99825.75;;;21.76;100.00
59419;BME280;45224;50.904;6.038;2023-08-12T05:08:05;99827.19;;;21.64;100.00
59419;BME280;45224;50.904;6.038;2023-08-12T05:09:37;99825.47;;;21.63;100.00
59419;BME280;45224;50.904;6.038;2023-08-12T05:11:07;99838.69;;;21.62;100.00
59419;BME280;45224;50.904;6.038;2023-08-12T05:12:39;99834.63;;;21.55;100.00
59419;BME280;45224;50.904;6.038;2023-08-12T05:14:09;99827.97;;;21.46;100.00
59419;BME280;45224;50.904;6.038;2023-08-12T05:15:40;99829.09;;;21.40;100.00
59419;BME280;45224;50.904;6.038;2023-08-12T05:17:10;99845.72;;;21.41;100.00
59419;BME280;45224;50.904;6.038;2023-08-12T05:18:42;99837.38;;;21.31;100.00
59419;BME280;45224;50.904;6.038;2023-08-12T05:20:12;99837.00;;;21.20;100.00
59419;BME280;45224;50.904;6.038;2023-08-12T05:21:43;99848.13;;;21.06;100.00
59419;BME280;45224;50.904;6.038;2023-08-12T05:23:13;99848.31;;;21.01;100.00
59419;BME280;45224;50.904;6.038;2023-08-12T05:24:43;99842.31;;;20.97;100.00
59419;BME280;45224;50.904;6.038;2023-08-12T05:26:14;99836.00;;;20.81;100.00
59419;BME280;45224;50.904;6.038;2023-08-12T05:27:44;99845.34;;;20.88;100.00
59419;BME280;45224;50.904;6.038;2023-08-12T05:29:15;99833.13;;;20.87;100.00
59419;BME280;45224;50.904;6.038;2023-08-12T05:30:45;99835.44;;;20.95;100.00
59419;BME280;45224;50.904;6.038;2023-08-12T05:32:16;99832.28;;;20.87;100.00
59419;BME280;45224;50.904;6.038;2023-08-12T05:33:46;99821.22;;;20.78;100.00
59419;BME280;45224;50.904;6.038;2023-08-12T05:35:17;99830.25;;;20.71;100.00
59419;BME280;45224;50.904;6.038;2023-08-12T05:36:47;99829.75;;;20.61;100.00
59419;BME280;45224;50.904;6.038;2023-08-12T05:38:18;99820.16;;;20.60;100.00
59419;BME280;45224;50.904;6.038;2023-08-12T05:39:48;99816.09;;;20.53;100.00
59419;BME280;45224;50.904;6.038;2023-08-12T05:41:19;99817.38;;;20.65;100.00
59419;BME280;45224;50.904;6.038;2023-08-12T05:42:49;99821.09;;;20.59;100.00
59419;BME280;45224;50.904;6.038;2023-08-12T05:44:20;99824.63;;;20.58;100.00
59419;BME280;45224;50.904;6.038;2023-08-12T05:45:50;99828.31;;;20.54;100.00
59419;BME280;45224;50.904;6.038;2023-08-12T05:47:21;99830.00;;;20.55;100.00
59419;BME280;45224;50.904;6.038;2023-08-12T05:48:51;99824.75;;;20.55;100.00
59419;BME280;45224;50.904;6.038;2023-08-12T05:50:22;99815.25;;;20.53;100.00
59419;BME280;45224;50.904;6.038;2023-08-12T05:51:52;99803.88;;;20.52;100.00
59419;BME280;45224;50.904;6.038;2023-08-12T05:53:23;99796.81;;;20.54;100.00
59419;BME280;45224;50.904;6.038;2023-08-12T05:54:53;99791.53;;;20.54;100.00
59419;BME280;45224;50.904;6.038;2023-08-12T05:56:23;99795.88;;;20.55;100.00
59419;BME280;45224;50.904;6.038;2023-08-12T05:57:54;99805.59;;;20.53;100.00
59419;BME280;45224;50.904;6.038;2023-08-12T05:59:24;99806.56;;;20.51;100.00
59419;BME280;45224;50.904;6.038;2023-08-12T06:00:55;99813.66;;;20.49;100.00
59419;BME280;45224;50.904;6.038;2023-08-12T06:02:25;99814.75;;;20.43;100.00
59419;BME280;45224;50.904;6.038;2023-08-12T06:03:56;99822.09;;;20.35;100.00
59419;BME280;45224;50.904;6.038;2023-08-12T06:05:27;99823.66;;;20.39;100.00
59419;BME280;45224;50.904;6.038;2023-08-12T06:06:57;99822.09;;;20.35;100.00
59419;BME280;45224;50.904;6.038;2023-08-12T06:08:28;99815.91;;;20.36;100.00
59419;BME280;45224;50.904;6.038;2023-08-12T06:09:58;99807.00;;;20.40;100.00
59419;BME280;45224;50.904;6.038;2023-08-12T06:11:29;99800.81;;;20.41;100.00
59419;BME280;45224;50.904;6.038;2023-08-12T06:12:59;99799.00;;;20.43;100.00
59419;BME280;45224;50.904;6.038;2023-08-12T06:14:30;99785.88;;;20.43;100.00
59419;BME280;45224;50.904;6.038;2023-08-12T06:16:00;99772.28;;;20.33;100.00
59419;BME280;45224;50.904;6.038;2023-08-12T06:17:31;99776.78;;;20.30;100.00
59419;BME280;45224;50.904;6.038;2023-08-12T06:19:01;99781.91;;;20.33;100.00
59419;BME280;45224;50.904;6.038;2023-08-12T06:20:32;99775.56;;;20.38;100.00
59419;BME280;45224;50.904;6.038;2023-08-12T06:22:02;99762.13;;;20.46;100.00
59419;BME280;45224;50.904;6.038;2023-08-12T06:23:33;99750.56;;;20.50;100.00
59419;BME280;45224;50.904;6.038;2023-08-12T06:25:04;99734.53;;;20.36;100.00
59419;BME280;45224;50.904;6.038;2023-08-12T06:26:34;99747.09;;;20.50;100.00
59419;BME280;45224;50.904;6.038;2023-08-12T06:28:05;99762.66;;;20.54;100.00
59419;BME280;45224;50.904;6.038;2023-08-12T06:29:35;99774.13;;;20.52;100.00
59419;BME280;45224;50.904;6.038;2023-08-12T06:31:06;99782.84;;;20.52;100.00
59419;BME280;45224;50.904;6.038;2023-08-12T06:32:36;99791.19;;;20.41;100.00
59419;BME280;45224;50.904;6.038;2023-08-12T06:34:07;99791.91;;;20.45;100.00
59419;BME280;45224;50.904;6.038;2023-08-12T06:35:37;99794.59;;;20.43;100.00
59419;BME280;45224;50.904;6.038;2023-08-12T06:37:10;99791.13;;;20.43;100.00
59419;BME280;45224;50.904;6.038;2023-08-12T06:38:40;99787.56;;;20.44;100.00
59419;BME280;45224;50.904;6.038;2023-08-12T06:40:10;99770.31;;;20.38;100.00
59419;BME280;45224;50.904;6.038;2023-08-12T06:41:41;99759.22;;;20.32;100.00
59419;BME280;45224;50.904;6.038;2023-08-12T06:43:11;99772.22;;;20.35;100.00
59419;BME280;45224;50.904;6.038;2023-08-12T06:44:42;99786.25;;;20.34;100.00
59419;BME280;45224;50.904;6.038;2023-08-12T06:46:12;99772.41;;;20.30;100.00
59419;BME280;45224;50.904;6.038;2023-08-12T06:47:43;99775.09;;;20.29;100.00
59419;BME280;45224;50.904;6.038;2023-08-12T06:49:15;99781.28;;;20.26;100.00
59419;BME280;45224;50.904;6.038;2023-08-12T06:50:45;99777.41;;;20.36;100.00
59419;BME280;45224;50.904;6.038;2023-08-12T06:52:16;99774.69;;;20.38;100.00
59419;BME280;45224;50.904;6.038;2023-08-12T06:53:46;99783.38;;;20.40;100.00
59419;BME280;45224;50.904;6.038;2023-08-12T06:55:17;99781.47;;;20.43;100.00
59419;BME280;45224;50.904;6.038;2023-08-12T06:56:47;99765.91;;;20.39;100.00
59419;BME280;45224;50.904;6.038;2023-08-12T06:58:18;99780.81;;;20.38;100.00
59419;BME280;45224;50.904;6.038;2023-08-12T06:59:48;99785.19;;;20.38;100.00
59419;BME280;45224;50.904;6.038;2023-08-12T07:01:19;99778.00;;;20.43;100.00
59419;BME280;45224;50.904;6.038;2023-08-12T07:02:49;99785.88;;;20.43;100.00
59419;BME280;45224;50.904;6.038;2023-08-12T07:04:20;99782.97;;;20.49;100.00
59419;BME280;45224;50.904;6.038;2023-08-12T07:05:51;99770.06;;;20.45;100.00
59419;BME280;45224;50.904;6.038;2023-08-12T07:07:21;99768.41;;;20.42;100.00
59419;BME280;45224;50.904;6.038;2023-08-12T07:08:53;99768.09;;;20.50;100.00
59419;BME280;45224;50.904;6.038;2023-08-12T07:10:24;99772.41;;;20.51;100.00
59419;BME280;45224;50.904;6.038;2023-08-12T07:11:54;99772.47;;;20.49;100.00
59419;BME280;45224;50.904;6.038;2023-08-12T07:13:24;99778.41;;;20.54;100.00
59419;BME280;45224;50.904;6.038;2023-08-12T07:14:55;99773.94;;;20.56;100.00
59419;BME280;45224;50.904;6.038;2023-08-12T07:16:25;99785.91;;;20.64;100.00
59419;BME280;45224;50.904;6.038;2023-08-12T07:17:56;99778.53;;;20.51;100.00
59419;BME280;45224;50.904;6.038;2023-08-12T07:19:27;99777.47;;;20.55;100.00
59419;BME280;45224;50.904;6.038;2023-08-12T07:20:58;99772.34;;;20.52;100.00
59419;BME280;45224;50.904;6.038;2023-08-12T07:22:29;99777.13;;;20.65;100.00
59419;BME280;45224;50.904;6.038;2023-08-12T07:24:00;99777.00;;;20.68;100.00
59419;BME280;45224;50.904;6.038;2023-08-12T07:25:30;99778.84;;;20.66;100.00
59419;BME280;45224;50.904;6.038;2023-08-12T07:27:01;99771.50;;;20.74;100.00
59419;BME280;45224;50.904;6.038;2023-08-12T07:28:32;99769.78;;;20.73;100.00
59419;BME280;45224;50.904;6.038;2023-08-12T07:30:02;99766.25;;;20.74;100.00
59419;BME280;45224;50.904;6.038;2023-08-12T07:31:33;99772.47;;;20.71;100.00
59419;BME280;45224;50.904;6.038;2023-08-12T07:33:04;99765.72;;;20.66;100.00
59419;BME280;45224;50.904;6.038;2023-08-12T07:34:35;99776.88;;;20.71;100.00
59419;BME280;45224;50.904;6.038;2023-08-12T07:36:05;99766.25;;;20.74;100.00
59419;BME280;45224;50.904;6.038;2023-08-12T07:37:36;99766.38;;;20.71;100.00
59419;BME280;45224;50.904;6.038;2023-08-12T07:39:07;99766.00;;;20.80;100.00
59419;BME280;45224;50.904;6.038;2023-08-12T07:40:37;99760.88;;;20.77;100.00
59419;BME280;45224;50.904;6.038;2023-08-12T07:42:08;99760.75;;;20.80;100.00
59419;BME280;45224;50.904;6.038;2023-08-12T07:43:38;99755.63;;;20.77;100.00
59419;BME280;45224;50.904;6.038;2023-08-12T07:45:09;99758.19;;;20.78;100.00
59419;BME280;45224;50.904;6.038;2023-08-12T07:46:39;99739.97;;;20.74;100.00
59419;BME280;45224;50.904;6.038;2023-08-12T07:48:10;99765.06;;;20.81;100.00
59419;BME280;45224;50.904;6.038;2023-08-12T07:49:41;99761.66;;;20.79;100.00
59419;BME280;45224;50.904;6.038;2023-08-12T07:51:12;99766.38;;;20.71;100.00
59419;BME280;45224;50.904;6.038;2023-08-12T07:52:43;99768.22;;;20.69;100.00
59419;BME280;45224;50.904;6.038;2023-08-12T07:54:13;99758.69;;;20.66;100.00
59419;BME280;45224;50.904;6.038;2023-08-12T07:55:43;99767.03;;;20.76;100.00
59419;BME280;45224;50.904;6.038;2023-08-12T07:57:14;99768.69;;;20.78;100.00